Deary, ID

12:42 PM PDT on June 02, 2015 (GMT -0700)
Paint Horse Ranch | | Change Station
CLOSE
Current Station
Personal Weather Station
Location: Deary, ID
Elevation: 2766 ft
Nearby Weather Stations

Elev 2766 ft 46.77 °N, 116.56 °W | Updated 14 minutes ago

Overcast
Overcast
55.6 °F
Feels Like 55.6 °F
N
3.2
Wind Variable Wind from SE

Today
High -- | Low -- °F
--% Chance of Precip.
Yesterday
High -- | Low -- °F
Precip. -- in
4:55 AM 8:33 PM
Full, 100% visible
Pressure 29.99 in
Visibility 10.0 miles
Clouds Scattered Clouds 3700 ft
Scattered Clouds 12000 ft
Dew Point 52 °F
Humidity 89%
Rainfall 0.63 in
Snow Depth Not available.
UV 9 out of 12
Pollen 5.30 out of 12
Air Quality Not available.
Flu Activity No Activity
METAR KPUW 021853Z AUTO 24010G18KT 10SM SCT037 SCT120 16/09 A3000 RMK AO2 RAE1757 SLP153 P0000 T01610089

More Conditions Fewer Conditions

Pressure 29.99 in
Visibility 10.0 miles
Clouds Scattered Clouds 3700 ft
Scattered Clouds 12000 ft
Dew Point 52 °F
Humidity 89%
Rainfall 0.63 in
Snow Depth Not available.
UV 9 out of 12
Pollen 5.30 out of 12
Air Quality Not available.
Flu Activity No Activity
METAR KPUW 021853Z AUTO 24010G18KT 10SM SCT037 SCT120 16/09 A3000 RMK AO2 RAE1757 SLP153 P0000 T01610089

More Conditions Fewer Conditions

10-Day Weather Forecast

×

Almanac

Astronomy

Jun. 02, 2015 Rise Set
Actual Time
Civil Twilight
Nautical Twilight
Astronomical Twilight
Moon
Length of Visible Light
Length of Day
Tomorrow will be .
, % of the Moon is Illuminated

Today's Extremes

State Highs State Lows

Community

WunderPhotos

Upload Photos

1,826,010 photos uploaded!

WunderBlogs® & News

Nearby

Air Quality

  Air Quality AQ Index Pollutant
Not available.

Snow Depth

Station Depth Elevation

Earthquake Activity

City Distance Mag. Time & Date
Minimum magnitude displayed is 2.5.

Coastal Water Temperatures

Place Temperature

Stations

Nearby Weather Stations

Station Location Temp. Windchill Dew Point Humidity Wind Precip. Elev Updated Type